Ecospiritp — SVA6084 — position and weather

sailwx.info

Track history (hours):
 
Tides and Currents Weather Stations Pressure Air Temp Water Temp Dewpoint Dewpoint Depression Visibility Wind Speed Wind Dir Waves Ship Positions

Ecospiritp

Last reported at 2017-Dec-11 13:45 UTC. Time now 2017-Dec-13 22:45 UTC.
Position N 37°57' E 023°37'.

Length 69 m; draft 1 m.

Type: Tanker. MMSI: 239864200.

Date/timePositionNaut miles runAvg speedWind from/ knotsBaromVisibWave heightAir tempDewpointWater temp
2017-Dec-11 13:45N 37°57' E 023°37'2 7.9
2017-Dec-11 13:30N 37°57' E 023°34'4 8.0
2017-Dec-11 13:00N 38°01' E 023°32'1 1.1
2017-Dec-11 12:25N 38°01' E 023°32'0 0.0
2017-Dec-11 11:59N 38°01' E 023°32'0 0.0
2017-Dec-11 11:30N 38°01' E 023°32'1 1.3
2017-Dec-11 11:00N 38°01' E 023°32'0 0.1
2017-Dec-11 10:30N 38°01' E 023°32'0 0.1
2017-Dec-11 10:00N 38°01' E 023°32'0 0.1
2017-Dec-11 09:31N 38°00' E 023°32'0 0.6
2017-Dec-11 09:00N 38°00' E 023°32'4 7.6
2017-Dec-11 08:30N 37°57' E 023°35'2 0.0
2017-Dec-09 12:15N 37°57' E 023°37'2 6.2
2017-Dec-09 12:00N 37°57' E 023°35'4 7.8
2017-Dec-09 11:30N 38°00' E 023°33'1 2.8
2017-Dec-09 11:00N 38°02' E 023°32'0 0.1
2017-Dec-09 10:30N 38°02' E 023°32'0 0.1
2017-Dec-09 10:00N 38°02' E 023°32'0 0.1
2017-Dec-09 09:30N 38°02' E 023°32'0 0.0
2017-Dec-09 08:50N 38°02' E 023°32'0 0.0
2017-Dec-09 08:30N 38°02' E 023°32'0 0.2
2017-Dec-09 07:58N 38°02' E 023°32'0 0.1
2017-Dec-09 07:30N 38°02' E 023°32'1 1.7
2017-Dec-09 07:00N 38°01' E 023°32'4 8.4
2017-Dec-09 06:30N 37°57' E 023°34'2 0.2
2017-Dec-08 18:07N 37°57' E 023°37'0 1.5
2017-Dec-08 18:00N 37°57' E 023°37'0 0.0
2017-Dec-08 17:30N 37°57' E 023°37'0 0.0
2017-Dec-08 17:00N 37°57' E 023°37'0 0.0
2017-Dec-08 16:30N 37°57' E 023°37'0 0.0
2017-Dec-08 16:00N 37°57' E 023°37'2 3.4
2017-Dec-08 15:30N 37°57' E 023°35'4 7.9
2017-Dec-08 15:01N 38°00' E 023°33'1 2.7
2017-Dec-08 14:30N 38°02' E 023°32'0 0.1
2017-Dec-08 14:00N 38°02' E 023°32'0 0.0
2017-Dec-08 13:30N 38°02' E 023°32'0 0.0
2017-Dec-08 13:00N 38°02' E 023°32'0 0.1
2017-Dec-08 12:29N 38°02' E 023°32'2 4.2
2017-Dec-08 12:00N 37°60' E 023°33'4 7.3
2017-Dec-08 11:30N 37°57' E 023°36'1 2.0
2017-Dec-08 11:00N 37°57' E 023°37'0 0.0
2017-Dec-08 10:30N 37°57' E 023°37'0 0.0
2017-Dec-08 10:00N 37°57' E 023°37'0 0.0
2017-Dec-08 09:30N 37°57' E 023°37'0 0.0
2017-Dec-08 09:00N 37°57' E 023°37'0 0.0
2017-Dec-08 08:30N 37°57' E 023°37'0 0.0
2017-Dec-08 08:00N 37°57' E 023°37'0 0.0
2017-Dec-08 07:30N 37°57' E 023°37'0 0.0
2017-Dec-07 15:32N 37°57' E 023°37'0 1.3
2017-Dec-07 15:30N 37°57' E 023°37'1 1.5
2017-Dec-07 15:00N 37°57' E 023°36'0 0.0
2017-Dec-07 14:30N 37°57' E 023°36'0 0.0
2017-Dec-07 14:00N 37°57' E 023°36'0 0.0
2017-Dec-07 13:30N 37°57' E 023°36'0 0.0
2017-Dec-07 13:00N 37°57' E 023°36'0 0.0
2017-Dec-07 12:30N 37°57' E 023°36'3 5.7
2017-Dec-07 12:00N 37°58' E 023°33'3 6.6
2017-Dec-07 11:30N 38°01' E 023°33'0 0.0
2017-Dec-07 11:01N 38°01' E 023°33'0 0.0
2017-Dec-07 10:30N 38°01' E 023°33'0 0.1
2017-Dec-07 10:00N 38°01' E 023°33'0 0.1
2017-Dec-07 09:30N 38°01' E 023°33'0 0.0
2017-Dec-07 09:00N 38°01' E 023°33'2 4.7
2017-Dec-07 08:30N 37°59' E 023°33'4 7.4
2017-Dec-07 08:00N 37°57' E 023°37'0 0.0
2017-Dec-07 07:30N 37°57' E 023°37'0 0.0
2017-Dec-07 07:00N 37°57' E 023°37'0 0.3
2017-Dec-07 06:30N 37°57' E 023°37'  
2017-Dec-04 10:30N 37°57' E 023°37'0 0.0
2017-Dec-04 10:00N 37°57' E 023°37'0 0.0
2017-Dec-04 09:30N 37°57' E 023°37'0 0.0
2017-Dec-04 09:00N 37°57' E 023°37'0 0.0
2017-Dec-04 08:30N 37°57' E 023°37'0 0.0
2017-Dec-04 08:00N 37°57' E 023°37'0 0.0
2017-Dec-04 07:30N 37°57' E 023°37'  
Track history (hours):
 
Tides and Currents Weather Stations Pressure Air Temp Water Temp Dewpoint Dewpoint Depression Visibility Wind Speed Wind Dir Waves Ship Positions

Ecospiritp

Last reported at 2017-Dec-11 13:45 UTC. Time now 2017-Dec-13 22:45 UTC.
Position N 37°57' E 023°37'.

Length 69 m; draft 1 m.

Type: Tanker. MMSI: 239864200.

Date/timePositionNaut miles runAvg speedWind from/ knotsBaromVisibWave heightAir tempDewpointWater temp
2017-Dec-11 13:45N 37°57' E 023°37'2 7.9
2017-Dec-11 13:30N 37°57' E 023°34'4 8.0
2017-Dec-11 13:00N 38°01' E 023°32'1 1.1
2017-Dec-11 12:25N 38°01' E 023°32'0 0.0
2017-Dec-11 11:59N 38°01' E 023°32'0 0.0
2017-Dec-11 11:30N 38°01' E 023°32'1 1.3
2017-Dec-11 11:00N 38°01' E 023°32'0 0.1
2017-Dec-11 10:30N 38°01' E 023°32'0 0.1
2017-Dec-11 10:00N 38°01' E 023°32'0 0.1
2017-Dec-11 09:31N 38°00' E 023°32'0 0.6
2017-Dec-11 09:00N 38°00' E 023°32'4 7.6
2017-Dec-11 08:30N 37°57' E 023°35'2 0.0
2017-Dec-09 12:15N 37°57' E 023°37'2 6.2
2017-Dec-09 12:00N 37°57' E 023°35'4 7.8
2017-Dec-09 11:30N 38°00' E 023°33'1 2.8
2017-Dec-09 11:00N 38°02' E 023°32'0 0.1
2017-Dec-09 10:30N 38°02' E 023°32'0 0.1
2017-Dec-09 10:00N 38°02' E 023°32'0 0.1
2017-Dec-09 09:30N 38°02' E 023°32'0 0.0
2017-Dec-09 08:50N 38°02' E 023°32'0 0.0
2017-Dec-09 08:30N 38°02' E 023°32'0 0.2
2017-Dec-09 07:58N 38°02' E 023°32'0 0.1
2017-Dec-09 07:30N 38°02' E 023°32'1 1.7
2017-Dec-09 07:00N 38°01' E 023°32'4 8.4
2017-Dec-09 06:30N 37°57' E 023°34'2 0.2
2017-Dec-08 18:07N 37°57' E 023°37'0 1.5
2017-Dec-08 18:00N 37°57' E 023°37'0 0.0
2017-Dec-08 17:30N 37°57' E 023°37'0 0.0
2017-Dec-08 17:00N 37°57' E 023°37'0 0.0
2017-Dec-08 16:30N 37°57' E 023°37'0 0.0
2017-Dec-08 16:00N 37°57' E 023°37'2 3.4
2017-Dec-08 15:30N 37°57' E 023°35'4 7.9
2017-Dec-08 15:01N 38°00' E 023°33'1 2.7
2017-Dec-08 14:30N 38°02' E 023°32'0 0.1
2017-Dec-08 14:00N 38°02' E 023°32'0 0.0
2017-Dec-08 13:30N 38°02' E 023°32'0 0.0
2017-Dec-08 13:00N 38°02' E 023°32'0 0.1
2017-Dec-08 12:29N 38°02' E 023°32'2 4.2
2017-Dec-08 12:00N 37°60' E 023°33'4 7.3
2017-Dec-08 11:30N 37°57' E 023°36'1 2.0
2017-Dec-08 11:00N 37°57' E 023°37'0 0.0
2017-Dec-08 10:30N 37°57' E 023°37'0 0.0
2017-Dec-08 10:00N 37°57' E 023°37'0 0.0
2017-Dec-08 09:30N 37°57' E 023°37'0 0.0
2017-Dec-08 09:00N 37°57' E 023°37'0 0.0
2017-Dec-08 08:30N 37°57' E 023°37'0 0.0
2017-Dec-08 08:00N 37°57' E 023°37'0 0.0
2017-Dec-08 07:30N 37°57' E 023°37'0 0.0
2017-Dec-07 15:32N 37°57' E 023°37'0 1.3
2017-Dec-07 15:30N 37°57' E 023°37'1 1.5
2017-Dec-07 15:00N 37°57' E 023°36'0 0.0
2017-Dec-07 14:30N 37°57' E 023°36'0 0.0
2017-Dec-07 14:00N 37°57' E 023°36'0 0.0
2017-Dec-07 13:30N 37°57' E 023°36'0 0.0
2017-Dec-07 13:00N 37°57' E 023°36'0 0.0
2017-Dec-07 12:30N 37°57' E 023°36'3 5.7
2017-Dec-07 12:00N 37°58' E 023°33'3 6.6
2017-Dec-07 11:30N 38°01' E 023°33'0 0.0
2017-Dec-07 11:01N 38°01' E 023°33'0 0.0
2017-Dec-07 10:30N 38°01' E 023°33'0 0.1
2017-Dec-07 10:00N 38°01' E 023°33'0 0.1
2017-Dec-07 09:30N 38°01' E 023°33'0 0.0
2017-Dec-07 09:00N 38°01' E 023°33'2 4.7
2017-Dec-07 08:30N 37°59' E 023°33'4 7.4
2017-Dec-07 08:00N 37°57' E 023°37'0 0.0
2017-Dec-07 07:30N 37°57' E 023°37'0 0.0
2017-Dec-07 07:00N 37°57' E 023°37'0 0.3
2017-Dec-07 06:30N 37°57' E 023°37'  
2017-Dec-04 10:30N 37°57' E 023°37'0 0.0
2017-Dec-04 10:00N 37°57' E 023°37'0 0.0
2017-Dec-04 09:30N 37°57' E 023°37'0 0.0
2017-Dec-04 09:00N 37°57' E 023°37'0 0.0
2017-Dec-04 08:30N 37°57' E 023°37'0 0.0
2017-Dec-04 08:00N 37°57' E 023°37'0 0.0
2017-Dec-04 07:30N 37°57' E 023°37'  

Dump ship's entire track history